Time;durP1;ratioP1;P1;durP2;ratioP2;P2;SDS_P1;SDS_P2;PMS_P1;PMS_P2;Temp;Humidity;BMP_temperature;BMP_pressure;BME280_temperature;BME280_humidity;BME280_pressure;Samples;Min_cycle;Max_cycle;Signal;HPM_P1;HPM_P2
2022/06/04 00:06:59;;;;;;;5.88;3.58;;;23.00;37.80;;;;;;20912851;28;20103;-69
2022/06/04 00:17:02;;;;;;;6.57;2.88;;;22.90;38.00;;;;;;20912301;28;20450;-68
2022/06/04 00:27:04;;;;;;;3.90;1.90;;;22.90;38.00;;;;;;20915974;28;20051;-68
2022/06/04 00:37:06;;;;;;;6.87;2.70;;;22.70;38.30;;;;;;20927797;28;20057;-67
2022/06/04 00:47:10;;;;;;;4.18;1.77;;;22.70;38.70;;;;;;20928131;28;20547;-68
2022/06/04 00:57:32;;;;;;;7.03;3.28;;;22.70;38.60;;;;;;20926152;28;20471;-69
2022/06/04 01:07:42;;;;;;;;;;;22.70;38.50;;;;;;20925905;28;20052;-65
2022/06/04 01:18:03;;;;;;;5.68;3.10;;;22.40;39.00;;;;;;20923560;28;19921;-69
2022/06/04 01:28:11;;;;;;;5.07;2.35;;;22.40;39.70;;;;;;20924339;28;20095;-69
2022/06/04 01:38:31;;;;;;;9.35;2.70;;;22.20;40.90;;;;;;20922374;28;20049;-66
2022/06/04 01:48:40;;;;;;;6.78;2.50;;;22.10;41.40;;;;;;20922094;28;20049;-69
2022/06/04 01:59:06;;;;;;;5.82;2.85;;;21.80;42.10;;;;;;20921602;28;20444;-68
2022/06/04 02:09:26;;;;;;;7.40;2.50;;;21.80;42.50;;;;;;20921383;28;20124;-68
2022/06/04 02:19:36;;;;;;;5.55;2.35;;;21.70;42.80;;;;;;20919939;28;20092;-71
2022/06/04 02:29:40;;;;;;;6.80;3.35;;;21.60;42.90;;;;;;20919377;28;20497;-67
2022/06/04 02:40:09;;;;;;;7.15;3.30;;;21.60;43.20;;;;;;20919537;28;20078;-69
2022/06/04 02:50:22;;;;;;;5.30;2.20;;;21.40;43.60;;;;;;20916378;28;20515;-66
2022/06/04 03:00:26;;;;;;;6.05;2.05;;;21.20;43.50;;;;;;20916574;28;20052;-68
2022/06/04 03:10:32;;;;;;;8.57;2.10;;;20.90;43.60;;;;;;20917084;28;20055;-67
2022/06/04 03:20:36;;;;;;;6.15;2.05;;;20.60;44.20;;;;;;20916056;28;20416;-68
2022/06/04 03:30:41;;;;;;;4.38;2.05;;;20.50;44.20;;;;;;20914580;28;20053;-68
2022/06/04 03:40:47;;;;;;;5.47;1.70;;;20.20;44.60;;;;;;20913975;28;20080;-67
2022/06/04 03:50:50;;;;;;;;;;;19.80;45.20;;;;;;20914050;28;20122;-64
2022/06/04 04:00:53;;;;;;;4.13;1.85;;;19.70;45.50;;;;;;20912303;28;19928;-69
2022/06/04 04:10:55;;;;;;;5.28;1.83;;;19.80;45.30;;;;;;20912723;28;20517;-64
2022/06/04 04:20:56;;;;;;;4.60;1.80;;;19.70;45.50;;;;;;20912071;28;20048;-67
2022/06/04 04:30:58;;;;;;;10.63;2.30;;;19.60;45.60;;;;;;20911753;28;20056;-68
2022/06/04 04:40:59;;;;;;;6.80;2.13;;;19.50;46.10;;;;;;20912300;28;20123;-64
2022/06/04 04:51:01;;;;;;;6.90;1.80;;;19.20;46.50;;;;;;20911395;28;20048;-64
2022/06/04 05:01:03;;;;;;;8.90;2.05;;;19.20;46.40;;;;;;20910165;28;20055;-64
2022/06/04 05:11:11;;;;;;;4.53;1.67;;;19.30;46.20;;;;;;20910950;28;20052;-64
2022/06/04 05:21:27;;;;;;;6.50;2.17;;;19.20;46.50;;;;;;20924043;28;20060;-68
2022/06/04 05:31:28;;;;;;;6.03;2.30;;;19.30;46.40;;;;;;20923940;28;20049;-62
2022/06/04 05:41:30;;;;;;;6.85;2.35;;;19.30;46.60;;;;;;20923145;28;20061;-62
2022/06/04 05:51:31;;;;;;;25.60;3.35;;;19.30;46.90;;;;;;20923152;28;20417;-66
2022/06/04 06:01:34;;;;;;;5.78;2.03;;;19.30;46.40;;;;;;20922050;28;20420;-66
2022/06/04 06:11:36;;;;;;;9.07;2.20;;;19.70;46.00;;;;;;20921205;28;20485;-68
2022/06/04 06:21:38;;;;;;;6.75;2.00;;;19.80;45.40;;;;;;20920457;28;20045;-71
2022/06/04 06:31:39;;;;;;;8.43;2.30;;;19.90;44.80;;;;;;20919479;28;20067;-67
2022/06/04 06:41:42;;;;;;;5.22;2.05;;;20.00;44.80;;;;;;20918819;28;20519;-69
2022/06/04 06:51:49;;;;;;;8.38;2.30;;;;;;;;;;20917216;28;20056;-69
2022/06/04 07:01:52;;;;;;;10.05;4.57;;;;;;;;;;20916070;28;20110;-70
2022/06/04 07:11:54;;;;;;;12.90;3.83;;;;;;;;;;20916158;28;20052;-70
2022/06/04 07:21:56;;;;;;;5.80;2.63;;;;;;;;;;20916244;28;20048;-68
2022/06/04 07:31:59;;;;;;;8.13;2.70;;;;;;;;;;20916025;28;20049;-70
2022/06/04 07:42:00;;;;;;;13.60;2.67;;;;;;;;;;20911932;28;20053;-67
2022/06/04 07:52:02;;;;;;;8.90;4.00;;;;;;;;;;20914015;28;20040;-67
2022/06/04 08:02:04;;;;;;;10.17;2.87;;;;;;;;;;20912903;28;20238;-69
2022/06/04 08:12:06;;;;;;;5.97;1.90;;;;;;;;;;20913378;28;20455;-65
2022/06/04 08:22:08;;;;;;;7.20;3.38;;;;;;;;;;20911709;28;20048;-64
2022/06/04 08:32:10;;;;;;;4.68;1.90;;;;;;;;;;20911426;28;20049;-62
2022/06/04 08:42:11;;;;;;;5.30;1.90;;;;;;;;;;20911108;28;20060;-64
2022/06/04 08:52:33;;;;;;;6.60;2.37;;;;;;;;;;20920995;28;20049;-68
2022/06/04 09:02:39;;;;;;;6.13;1.70;;;;;;;;;;20926399;28;20773;-68
2022/06/04 09:12:44;;;;;;;8.88;1.85;;;;;;;;;;20925105;28;20144;-68
2022/06/04 09:22:47;;;;;;;6.40;2.30;;;;;;;;;;20924768;28;20519;-69
2022/06/04 09:32:56;;;;;;;6.30;1.70;;;;;;;;;;20923477;28;20516;-68
2022/06/04 09:43:06;;;;;;;8.02;1.75;;;;;;;;;;20922648;28;20520;-69
2022/06/04 09:53:12;;;;;;;4.07;1.57;;;;;;;;;;20920262;28;20230;-59
2022/06/04 10:03:16;;;;;;;4.25;1.65;;;;;;;;;;20918379;28;20053;-58
2022/06/04 10:23:45;;;;;;;9.43;2.15;;;;;;;;;;20919168;28;20055;-60
2022/06/04 10:33:54;;;;;;;4.93;2.10;;;;;;;;;;20919227;28;20044;-58
2022/06/04 10:44:19;;;;;;;5.22;1.83;;;;;;;;;;20917866;28;20083;-58
2022/06/04 10:54:21;;;;;;;6.82;3.28;;;;;;;;;;20916585;28;20098;-58
2022/06/04 11:04:26;;;;;;;5.32;2.65;;;;;;;;;;20914427;28;20044;-59
2022/06/04 11:14:40;;;;;;;6.70;2.88;;;;;;;;;;20913553;28;20060;-60
2022/06/04 11:24:50;;;;;;;7.18;3.25;;;;;;;;;;20914788;28;20049;-67
2022/06/04 11:34:55;;;;;;;5.72;2.10;;;;;;;;;;20913813;28;20049;-64
2022/06/04 11:45:09;;;;;;;5.25;1.98;;;;;;;;;;20913549;28;20505;-69
2022/06/04 11:55:25;;;;;;;8.50;2.15;;;;;;;;;;20913395;28;20508;-66
2022/06/04 12:05:32;;;;;;;5.07;1.38;;;;;;;;;;20910069;28;20053;-67
2022/06/04 12:15:40;;;;;;;7.10;1.83;;;;;;;;;;20911350;28;20131;-65
2022/06/04 12:25:43;;;;;;;4.72;1.58;;;;;;;;;;20919016;28;20060;-67
2022/06/04 12:35:53;;;;;;;5.45;1.75;;;;;;;;;;20926144;28;20456;-66
2022/06/04 12:46:06;;;;;;;4.30;1.90;;;;;;;;;;20923595;28;20551;-68
2022/06/04 12:56:08;;;;;;;3.35;1.50;;;;;;;;;;20924927;28;20084;-67
2022/06/04 13:06:13;;;;;;;4.35;2.03;;;;;;;;;;20924950;28;20056;-63
2022/06/04 13:16:17;;;;;;;2.85;1.30;;;;;;;;;;20924066;28;20052;-64
2022/06/04 13:26:25;;;;;;;7.07;1.10;;;;;;;;;;20924175;28;20049;-65
2022/06/04 13:36:29;;;;;;;8.40;2.50;;;;;;;;;;20922755;28;20421;-67
2022/06/04 13:46:31;;;;;;;2.92;1.85;;;;;;;;;;20922340;28;20056;-67
2022/06/04 13:56:41;;;;;;;5.45;2.28;;;;;;;;;;20921794;28;20053;-67
2022/06/04 14:06:46;;;;;;;5.93;3.53;;;27.60;29.90;;;;;;20919901;28;20049;-68
2022/06/04 14:17:17;;;;;;;4.95;1.30;;;27.70;30.10;;;;;;20919629;28;20057;-68
2022/06/04 14:27:35;;;;;;;5.07;1.57;;;27.90;29.40;;;;;;20919371;28;20049;-61
2022/06/04 14:37:41;;;;;;;4.20;1.13;;;27.70;29.70;;;;;;20917684;28;20080;-66
2022/06/04 14:48:07;;;;;;;2.90;1.40;;;28.00;28.80;;;;;;20915453;28;20045;-67
2022/06/04 14:58:41;;;;;;;4.32;1.50;;;27.80;29.10;;;;;;20917257;28;20053;-65
2022/06/04 15:09:09;;;;;;;4.05;1.85;;;28.20;26.70;;;;;;20907250;28;20556;-67
2022/06/04 15:19:50;;;;;;;3.33;1.25;;;28.10;28.20;;;;;;20905889;28;20044;-67
2022/06/04 15:40:59;;;;;;;3.85;1.15;;;28.20;26.60;;;;;;20907502;28;20048;-66
2022/06/04 16:01:32;;;;;;;4.25;1.48;;;27.70;28.90;;;;;;20912495;28;20106;-72
2022/06/04 16:11:49;;;;;;;3.90;1.77;;;27.80;29.20;;;;;;20912162;28;20079;-71
2022/06/04 16:22:14;;;;;;;7.25;1.65;;;27.70;29.70;;;;;;20912782;28;20049;-71
2022/06/04 16:32:19;;;;;;;4.97;1.85;;;27.80;29.10;;;;;;20911873;28;20049;-63
2022/06/04 16:42:29;;;;;;;3.17;1.25;;;27.70;28.70;;;;;;20911825;28;20049;-72
2022/06/04 16:52:38;;;;;;;3.22;1.05;;;27.50;28.90;;;;;;20911115;28;20052;-64
2022/06/04 17:03:10;;;;;;;3.30;1.35;;;27.50;28.50;;;;;;20909377;28;20049;-62
2022/06/04 17:13:31;;;;;;;4.00;1.67;;;27.10;28.40;;;;;;20917820;28;20412;-65
2022/06/04 17:23:55;;;;;;;5.63;1.52;;;27.10;29.00;;;;;;20924988;28;20103;-63
2022/06/04 17:33:57;;;;;;;2.80;1.08;;;26.70;30.50;;;;;;20942894;28;20095;-60
2022/06/04 17:43:59;;;;;;;3.25;1.30;;;26.60;30.00;;;;;;20937327;28;20127;-63
2022/06/04 17:54:01;;;;;;;10.40;6.57;;;26.60;30.30;;;;;;20960349;28;20144;-63
2022/06/04 18:04:03;;;;;;;12.65;7.25;;;26.20;31.70;;;;;;20978355;28;20138;-59
2022/06/04 18:14:06;;;;;;;9.80;3.50;;;25.90;31.20;;;;;;21002009;28;20055;-62
2022/06/04 18:24:07;;;;;;;4.57;1.40;;;26.10;31.80;;;;;;21000668;28;20052;-56
2022/06/04 18:34:09;;;;;;;;;;;26.10;31.60;;;;;;21001937;28;20048;-61
2022/06/04 18:54:37;;;;;;;7.10;3.95;;;25.40;32.80;;;;;;20998226;28;20059;-61
2022/06/04 19:04:40;;;;;;;5.40;4.00;;;25.00;33.10;;;;;;20997748;28;20135;-64
2022/06/04 19:14:41;;;;;;;4.68;1.90;;;25.10;32.90;;;;;;20998992;28;20084;-67
2022/06/04 19:24:47;;;;;;;6.13;2.30;;;24.90;33.60;;;;;;20997629;28;20051;-65
2022/06/04 19:34:49;;;;;;;4.22;2.35;;;24.70;33.90;;;;;;20995252;28;20453;-66
2022/06/04 19:44:51;;;;;;;6.72;3.10;;;24.60;34.80;;;;;;20995038;28;20045;-65
2022/06/04 19:55:06;;;;;;;5.43;2.67;;;24.40;34.60;;;;;;20995069;28;20466;-66
2022/06/04 20:05:08;;;;;;;6.72;3.38;;;23.80;34.30;;;;;;20995018;28;20048;-63
2022/06/04 20:15:10;;;;;;;7.93;3.30;;;23.70;34.50;;;;;;20995030;28;20051;-63
2022/06/04 20:25:12;;;;;;;6.50;2.50;;;23.70;34.90;;;;;;20993325;28;20293;-67
2022/06/04 20:35:20;;;;;;;5.10;2.05;;;23.40;35.10;;;;;;20994062;28;20052;-70
2022/06/04 20:45:22;;;;;;;5.70;2.30;;;23.60;34.40;;;;;;20999576;28;20206;-70
2022/06/04 20:55:23;;;;;;;5.00;2.65;;;23.50;34.40;;;;;;21009023;28;20451;-67
2022/06/04 21:05:25;;;;;;;5.35;2.53;;;23.60;34.50;;;;;;21008516;28;20048;-66
2022/06/04 21:15:29;;;;;;;4.03;2.22;;;23.40;34.80;;;;;;21009164;28;20056;-64
2022/06/04 21:25:35;;;;;;;5.85;2.20;;;23.40;34.60;;;;;;21007058;28;20408;-68
2022/06/04 21:45:57;;;;;;;5.05;3.08;;;23.20;34.80;;;;;;21005660;28;20049;-63
2022/06/04 21:55:58;;;;;;;6.85;3.67;;;23.20;34.90;;;;;;21003205;28;20080;-70
2022/06/04 22:06:00;;;;;;;4.97;2.78;;;23.20;35.20;;;;;;21003529;28;20044;-70
2022/06/04 22:16:01;;;;;;;6.43;3.00;;;23.00;35.30;;;;;;21002453;28;20049;-72
2022/06/04 22:26:03;;;;;;;5.22;3.20;;;22.90;35.80;;;;;;21002788;28;20045;-71
2022/06/04 22:36:05;;;;;;;5.75;4.07;;;22.70;36.70;;;;;;21002261;28;20048;-72
2022/06/04 22:46:21;;;;;;;8.37;4.73;;;22.80;36.60;;;;;;21000629;28;20052;-71
2022/06/04 22:56:22;;;;;;;4.97;2.65;;;22.70;37.20;;;;;;20999628;28;20052;-71
2022/06/04 23:06:24;;;;;;;4.28;2.70;;;22.60;37.00;;;;;;20998861;28;20565;-70
2022/06/04 23:26:46;;;;;;;6.32;2.40;;;22.00;38.20;;;;;;20997113;28;20044;-70
2022/06/04 23:36:50;;;;;;;4.80;2.25;;;21.80;38.20;;;;;;20996018;28;20059;-68
2022/06/04 23:46:51;;;;;;;4.32;2.42;;;21.70;38.50;;;;;;20996705;28;20476;-70
2022/06/04 23:56:53;;;;;;;5.10;2.40;;;21.60;39.20;;;;;;20995766;28;20146;-70
